createdAt,value
2018-03-31T00:00:08.314Z,0
2018-03-31T00:00:48.774Z,0
2018-03-31T00:01:29.290Z,0
2018-03-31T00:02:09.763Z,0
2018-03-31T00:02:50.258Z,0
2018-03-31T00:03:30.777Z,0
2018-03-31T00:04:11.265Z,0
2018-03-31T00:04:51.999Z,0
2018-03-31T00:05:32.271Z,0
2018-03-31T00:06:12.957Z,0
2018-03-31T00:06:53.433Z,0
2018-03-31T00:07:33.944Z,0
2018-03-31T00:08:14.434Z,0
2018-03-31T00:08:54.883Z,0
2018-03-31T00:09:35.364Z,0
2018-03-31T00:10:15.868Z,0
2018-03-31T00:10:56.337Z,0
2018-03-31T00:11:36.844Z,0
2018-03-31T00:12:17.333Z,0
2018-03-31T00:12:57.809Z,0
2018-03-31T00:13:38.360Z,0
2018-03-31T00:14:18.851Z,0
2018-03-31T00:14:59.294Z,0
2018-03-31T00:15:39.773Z,0
2018-03-31T00:16:20.247Z,0
2018-03-31T00:17:00.746Z,0
2018-03-31T00:17:41.206Z,0
2018-03-31T00:18:21.732Z,0
2018-03-31T00:19:02.193Z,0
2018-03-31T00:19:42.720Z,0
2018-03-31T00:20:23.182Z,0
2018-03-31T00:21:03.659Z,0
2018-03-31T00:21:44.137Z,0
2018-03-31T00:22:24.604Z,0
2018-03-31T00:23:05.087Z,0
2018-03-31T00:23:45.630Z,0
2018-03-31T00:24:26.127Z,0
2018-03-31T00:25:06.580Z,0
2018-03-31T00:25:47.108Z,0
2018-03-31T00:26:27.572Z,0
2018-03-31T00:27:08.022Z,0
2018-03-31T00:27:48.521Z,0
2018-03-31T00:28:29.040Z,0
2018-03-31T00:29:09.519Z,0
2018-03-31T00:29:49.981Z,0
2018-03-31T00:30:30.454Z,0
2018-03-31T00:31:11.098Z,0
2018-03-31T00:31:51.568Z,0
2018-03-31T00:32:32.063Z,0
2018-03-31T00:33:12.540Z,0
2018-03-31T00:33:53.016Z,0
2018-03-31T00:34:33.576Z,0
2018-03-31T00:35:13.986Z,0
2018-03-31T00:35:54.483Z,0
2018-03-31T00:36:34.983Z,0
2018-03-31T00:37:15.460Z,0
2018-03-31T00:37:55.965Z,0
2018-03-31T00:38:36.711Z,0
2018-03-31T00:39:17.260Z,0
2018-03-31T00:39:57.755Z,0
2018-03-31T00:40:38.211Z,0
2018-03-31T00:41:18.696Z,0
2018-03-31T00:41:59.198Z,0
2018-03-31T00:42:39.660Z,0
2018-03-31T00:43:20.159Z,0
2018-03-31T00:44:00.636Z,0
2018-03-31T00:44:41.093Z,0
2018-03-31T00:45:21.602Z,0
2018-03-31T00:46:02.333Z,0
2018-03-31T00:46:42.865Z,0
2018-03-31T00:47:23.357Z,0
2018-03-31T00:48:03.827Z,0
2018-03-31T00:48:44.352Z,0
2018-03-31T00:49:24.828Z,0
2018-03-31T00:50:05.320Z,0
2018-03-31T00:50:45.801Z,0
2018-03-31T00:51:26.284Z,0
2018-03-31T00:52:06.823Z,0
2018-03-31T00:52:47.369Z,0
2018-03-31T00:53:28.135Z,0
2018-03-31T00:54:08.582Z,0
2018-03-31T00:54:49.128Z,0
2018-03-31T00:55:29.634Z,0
2018-03-31T00:56:10.067Z,0
2018-03-31T00:56:50.570Z,0
2018-03-31T00:57:30.969Z,0
2018-03-31T00:58:11.459Z,0
2018-03-31T00:58:51.966Z,0
2018-03-31T00:59:32.475Z,0
2018-03-31T01:00:12.979Z,0
2018-03-31T01:00:53.482Z,0
2018-03-31T01:01:33.935Z,0
2018-03-31T01:02:14.450Z,0
2018-03-31T01:02:54.912Z,0
2018-03-31T01:03:35.376Z,0
2018-03-31T01:04:15.873Z,0
2018-03-31T01:04:56.363Z,0
2018-03-31T01:05:36.817Z,0
2018-03-31T01:06:17.383Z,0
2018-03-31T01:06:57.833Z,0
2018-03-31T01:07:38.362Z,0
2018-03-31T01:08:18.815Z,0
2018-03-31T01:08:59.341Z,0
2018-03-31T01:09:39.806Z,0
2018-03-31T01:10:20.291Z,0
2018-03-31T01:11:00.831Z,0
2018-03-31T01:11:41.291Z,0
2018-03-31T01:12:21.798Z,0
2018-03-31T01:13:02.281Z,0
2018-03-31T01:13:42.792Z,0
2018-03-31T01:14:23.245Z,0
2018-03-31T01:15:03.983Z,0
2018-03-31T01:15:44.257Z,0
2018-03-31T01:16:24.762Z,0
2018-03-31T01:17:05.243Z,0
2018-03-31T01:17:45.673Z,0
2018-03-31T01:18:26.183Z,0
2018-03-31T01:19:06.630Z,0
2018-03-31T01:19:47.133Z,0
2018-03-31T01:20:27.649Z,0
2018-03-31T01:21:08.118Z,0
2018-03-31T01:21:48.640Z,0
2018-03-31T01:22:29.087Z,0
2018-03-31T01:23:09.584Z,0
2018-03-31T01:23:50.043Z,0
2018-03-31T01:24:30.579Z,0
2018-03-31T01:25:11.049Z,0
2018-03-31T01:25:51.525Z,0
2018-03-31T01:26:32.162Z,0
2018-03-31T01:27:12.490Z,0
2018-03-31T01:27:53.213Z,0
2018-03-31T01:28:33.702Z,0
2018-03-31T01:29:14.152Z,0
2018-03-31T01:29:54.635Z,0
2018-03-31T01:30:35.130Z,0
2018-03-31T01:31:15.599Z,0
2018-03-31T01:31:56.122Z,0
2018-03-31T01:32:36.561Z,0
2018-03-31T01:33:17.060Z,0
2018-03-31T01:33:57.544Z,0
2018-03-31T01:34:38.036Z,0
2018-03-31T01:35:18.529Z,0
2018-03-31T01:35:59.030Z,0
2018-03-31T01:36:39.498Z,0
2018-03-31T01:37:19.967Z,0
2018-03-31T01:38:00.493Z,0
2018-03-31T01:38:40.938Z,0
2018-03-31T01:39:21.424Z,0
2018-03-31T01:40:01.871Z,0
2018-03-31T01:40:42.431Z,0
2018-03-31T01:41:22.921Z,0
2018-03-31T01:42:03.362Z,0
2018-03-31T01:42:43.871Z,0
2018-03-31T01:43:24.381Z,0
2018-03-31T01:44:04.808Z,0
2018-03-31T01:44:45.290Z,0
2018-03-31T01:45:25.754Z,0
2018-03-31T01:46:06.260Z,0
2018-03-31T01:46:46.707Z,0
2018-03-31T01:47:27.182Z,0
2018-03-31T01:48:07.701Z,0
2018-03-31T01:48:48.472Z,0
2018-03-31T01:49:29.043Z,0
2018-03-31T01:50:09.413Z,0
2018-03-31T01:50:49.914Z,0
2018-03-31T01:51:30.433Z,0
2018-03-31T01:52:10.865Z,0
2018-03-31T01:52:51.390Z,0
2018-03-31T01:53:31.860Z,0
2018-03-31T01:54:12.358Z,0
2018-03-31T01:54:52.817Z,0
2018-03-31T01:55:33.312Z,0
2018-03-31T01:56:13.743Z,0
2018-03-31T01:56:54.414Z,0
2018-03-31T01:57:34.895Z,0
2018-03-31T01:58:15.415Z,0
2018-03-31T01:58:55.835Z,0
2018-03-31T01:59:36.394Z,0
2018-03-31T02:00:16.809Z,0
2018-03-31T02:00:57.320Z,0
2018-03-31T02:01:37.804Z,0
2018-03-31T02:02:18.258Z,0
2018-03-31T02:02:58.717Z,0
2018-03-31T02:03:39.254Z,0
2018-03-31T02:04:19.750Z,0
2018-03-31T02:05:00.226Z,0
2018-03-31T02:05:40.702Z,0
2018-03-31T02:06:21.208Z,0
2018-03-31T02:07:01.730Z,0
2018-03-31T02:07:42.199Z,0
2018-03-31T02:08:22.711Z,0
2018-03-31T02:09:03.165Z,0
2018-03-31T02:09:43.668Z,0
2018-03-31T02:10:24.129Z,0
2018-03-31T02:11:04.635Z,0
2018-03-31T02:11:45.141Z,0
2018-03-31T02:12:25.663Z,0
2018-03-31T02:13:06.156Z,0
2018-03-31T02:13:46.638Z,0
2018-03-31T02:14:27.141Z,0
2018-03-31T02:15:07.633Z,0
2018-03-31T02:15:48.150Z,0
2018-03-31T02:16:28.676Z,0
2018-03-31T02:17:09.213Z,0
2018-03-31T02:17:49.669Z,0
2018-03-31T02:18:30.155Z,0
2018-03-31T02:19:10.635Z,0
2018-03-31T02:19:51.159Z,0
2018-03-31T02:20:31.635Z,0
2018-03-31T02:21:12.138Z,0
2018-03-31T02:21:52.655Z,0
2018-03-31T02:22:33.130Z,0
2018-03-31T02:23:13.619Z,0
2018-03-31T02:23:54.132Z,0
2018-03-31T02:24:34.599Z,0
2018-03-31T02:25:15.070Z,0
2018-03-31T02:25:55.559Z,0
2018-03-31T02:26:36.036Z,0
2018-03-31T02:27:16.519Z,0
2018-03-31T02:27:57.034Z,0
2018-03-31T02:28:37.526Z,0
2018-03-31T02:29:18.034Z,0
2018-03-31T02:29:58.532Z,0
2018-03-31T02:30:39.036Z,0
2018-03-31T02:31:19.563Z,0
2018-03-31T02:32:00.028Z,0
2018-03-31T02:32:40.547Z,0
2018-03-31T02:33:21.035Z,0
2018-03-31T02:34:01.541Z,0
2018-03-31T02:34:42.010Z,0
2018-03-31T02:35:22.519Z,0
2018-03-31T02:36:03.034Z,0
2018-03-31T02:36:43.576Z,0
2018-03-31T02:37:24.005Z,0
2018-03-31T02:38:04.543Z,0
2018-03-31T02:38:45.023Z,0
2018-03-31T02:39:25.525Z,0
2018-03-31T02:40:06.031Z,0
2018-03-31T02:40:46.551Z,0
2018-03-31T02:41:27.028Z,0
2018-03-31T02:42:07.526Z,0
2018-03-31T02:42:48.030Z,0
2018-03-31T02:43:28.495Z,0
2018-03-31T02:44:08.986Z,0
2018-03-31T02:44:49.509Z,0
2018-03-31T02:45:29.990Z,0
2018-03-31T02:46:10.494Z,0
2018-03-31T02:46:50.993Z,0
2018-03-31T02:47:31.506Z,0
2018-03-31T02:48:12.030Z,0
2018-03-31T02:48:52.549Z,0
2018-03-31T02:49:33.068Z,0
2018-03-31T02:50:13.539Z,0
2018-03-31T02:50:53.986Z,0
2018-03-31T02:51:34.498Z,0
2018-03-31T02:52:14.997Z,0
2018-03-31T02:52:55.503Z,0
2018-03-31T02:53:36.016Z,0
2018-03-31T02:54:16.532Z,0
2018-03-31T02:54:57.098Z,0
2018-03-31T02:55:37.589Z,0
2018-03-31T02:56:18.055Z,0
2018-03-31T02:56:58.559Z,0
2018-03-31T02:57:39.122Z,0
2018-03-31T02:58:19.636Z,0
2018-03-31T02:59:00.127Z,0
2018-03-31T02:59:40.631Z,0
2018-03-31T03:00:21.178Z,0
2018-03-31T03:01:01.657Z,0
2018-03-31T03:01:42.186Z,0
2018-03-31T03:02:22.644Z,0
2018-03-31T03:03:03.133Z,0
2018-03-31T03:03:43.585Z,0
2018-03-31T03:04:24.093Z,0
2018-03-31T03:05:04.586Z,0
2018-03-31T03:05:45.099Z,0
2018-03-31T03:06:25.593Z,0
2018-03-31T03:07:06.086Z,0
2018-03-31T03:07:46.578Z,0
2018-03-31T03:08:27.164Z,0
2018-03-31T03:09:07.646Z,0
2018-03-31T03:09:48.141Z,0
2018-03-31T03:10:28.632Z,0
2018-03-31T03:11:09.138Z,0
2018-03-31T03:11:49.649Z,0
2018-03-31T03:12:30.138Z,0
2018-03-31T03:13:10.634Z,0
2018-03-31T03:13:52.158Z,0
2018-03-31T03:14:32.645Z,0
2018-03-31T03:15:13.164Z,0
2018-03-31T03:15:53.658Z,0
2018-03-31T03:16:34.164Z,0
2018-03-31T03:17:14.654Z,0
2018-03-31T03:17:55.134Z,0
2018-03-31T03:18:35.657Z,0
2018-03-31T03:19:16.163Z,0
2018-03-31T03:19:56.646Z,0
2018-03-31T03:20:37.210Z,0
2018-03-31T03:21:17.713Z,0
2018-03-31T03:21:58.226Z,0
2018-03-31T03:22:38.727Z,0
2018-03-31T03:23:19.243Z,0
2018-03-31T03:23:59.753Z,0
2018-03-31T03:24:40.248Z,0
2018-03-31T03:25:20.763Z,0
2018-03-31T03:26:01.256Z,0
2018-03-31T03:26:41.769Z,0
2018-03-31T03:27:22.252Z,0
2018-03-31T03:28:02.733Z,0
2018-03-31T03:28:43.594Z,0
2018-03-31T03:30:41.781Z,0
2018-03-31T03:31:22.282Z,0
2018-03-31T03:32:02.910Z,0
2018-03-31T03:34:36.434Z,0
2018-03-31T03:35:16.927Z,0
2018-03-31T03:35:57.423Z,0
2018-03-31T03:36:37.917Z,0
2018-03-31T03:37:18.454Z,0
2018-03-31T03:37:58.980Z,0
2018-03-31T03:38:39.423Z,0
2018-03-31T03:39:19.922Z,0
2018-03-31T03:40:00.424Z,0
2018-03-31T03:40:41.007Z,0
2018-03-31T03:41:21.466Z,0
2018-03-31T03:42:01.930Z,0
2018-03-31T03:42:42.437Z,0
2018-03-31T03:43:22.907Z,0
2018-03-31T03:44:03.501Z,0
2018-03-31T03:44:43.922Z,0
2018-03-31T03:45:24.379Z,0
2018-03-31T03:46:04.860Z,0
2018-03-31T03:46:45.359Z,0
2018-03-31T03:47:25.915Z,0
2018-03-31T03:48:06.349Z,0
2018-03-31T03:48:46.835Z,0
2018-03-31T03:49:27.333Z,0
2018-03-31T03:50:07.808Z,0
2018-03-31T03:50:48.286Z,0
2018-03-31T03:51:28.786Z,0
2018-03-31T03:52:09.286Z,0
2018-03-31T03:52:49.866Z,0
2018-03-31T03:53:30.284Z,0
2018-03-31T03:54:10.783Z,0
2018-03-31T03:54:51.276Z,0
2018-03-31T03:55:31.786Z,0
2018-03-31T03:56:12.285Z,0
2018-03-31T03:56:52.791Z,0
2018-03-31T03:57:33.283Z,0
2018-03-31T03:58:13.801Z,0
2018-03-31T03:58:54.331Z,0
2018-03-31T03:59:34.830Z,0
2018-03-31T04:00:15.347Z,0
2018-03-31T04:00:55.852Z,0
2018-03-31T04:01:36.342Z,0
2018-03-31T04:02:16.833Z,0
2018-03-31T04:02:57.341Z,0
2018-03-31T04:03:37.875Z,0
2018-03-31T04:04:18.366Z,0
2018-03-31T04:04:58.939Z,0
2018-03-31T04:05:39.472Z,0
2018-03-31T04:06:19.952Z,0
2018-03-31T04:07:00.451Z,0
2018-03-31T04:07:40.968Z,0
2018-03-31T04:08:21.440Z,0
2018-03-31T04:09:01.934Z,0
2018-03-31T04:09:42.444Z,0
2018-03-31T04:10:22.986Z,0
2018-03-31T04:11:03.483Z,0
2018-03-31T04:11:43.998Z,0
2018-03-31T04:12:24.461Z,0
2018-03-31T04:13:04.962Z,0
2018-03-31T04:13:45.479Z,0
2018-03-31T04:14:25.975Z,0
2018-03-31T04:15:06.486Z,0
2018-03-31T04:15:47.126Z,0
2018-03-31T04:16:27.626Z,0
2018-03-31T04:17:08.130Z,0
2018-03-31T04:17:48.668Z,0
2018-03-31T04:18:29.131Z,0
2018-03-31T04:19:09.654Z,0
2018-03-31T04:19:50.144Z,0
2018-03-31T04:20:30.622Z,0
2018-03-31T04:21:11.191Z,0
2018-03-31T04:21:51.674Z,0
2018-03-31T04:22:32.134Z,0
2018-03-31T04:23:12.643Z,0
2018-03-31T04:23:53.172Z,0
2018-03-31T04:24:33.640Z,0
2018-03-31T04:25:14.113Z,0
2018-03-31T04:25:54.614Z,0
2018-03-31T04:26:35.230Z,0
2018-03-31T04:27:15.665Z,0
2018-03-31T04:27:56.160Z,0
2018-03-31T04:28:36.659Z,0
2018-03-31T04:29:17.167Z,0
2018-03-31T04:29:57.723Z,0
2018-03-31T04:30:38.268Z,0
2018-03-31T04:31:18.728Z,0
2018-03-31T04:31:59.237Z,0
2018-03-31T04:32:39.760Z,0
2018-03-31T04:33:20.265Z,0
2018-03-31T04:34:00.752Z,0
2018-03-31T04:34:41.286Z,0
2018-03-31T04:35:21.787Z,0
2018-03-31T04:36:02.312Z,0
2018-03-31T04:36:42.819Z,0
2018-03-31T04:37:23.318Z,0
2018-03-31T04:38:03.860Z,0
2018-03-31T04:38:44.306Z,0
2018-03-31T04:39:24.809Z,0
2018-03-31T04:40:05.322Z,0
2018-03-31T04:40:45.784Z,0
2018-03-31T04:41:26.297Z,0
2018-03-31T04:42:06.804Z,4
2018-03-31T04:42:47.308Z,4
2018-03-31T04:43:27.799Z,4
2018-03-31T04:44:08.259Z,0
2018-03-31T04:44:48.759Z,4
2018-03-31T04:45:29.250Z,4
2018-03-31T04:46:09.780Z,0
2018-03-31T04:46:50.265Z,4
2018-03-31T04:47:30.786Z,8
2018-03-31T04:48:11.276Z,4
2018-03-31T04:48:51.775Z,8
2018-03-31T04:49:32.317Z,8
2018-03-31T04:50:12.833Z,8
2018-03-31T04:50:53.302Z,12
2018-03-31T04:51:33.810Z,12
2018-03-31T04:52:14.382Z,12
2018-03-31T04:52:54.800Z,16
2018-03-31T04:53:35.254Z,16
2018-03-31T04:54:15.740Z,16
2018-03-31T04:54:56.232Z,20
2018-03-31T04:55:36.740Z,20
2018-03-31T04:56:17.226Z,20
2018-03-31T04:56:57.742Z,24
2018-03-31T04:57:38.214Z,24
2018-03-31T04:58:18.835Z,28
2018-03-31T04:58:59.348Z,28
2018-03-31T04:59:39.858Z,32
2018-03-31T05:00:20.378Z,36
2018-03-31T05:01:00.888Z,40
2018-03-31T05:01:41.379Z,40
2018-03-31T05:02:21.891Z,44
2018-03-31T05:03:02.386Z,44
2018-03-31T05:03:42.904Z,52
2018-03-31T05:04:23.402Z,52
2018-03-31T05:05:03.904Z,56
2018-03-31T05:05:44.398Z,64
2018-03-31T05:06:24.909Z,68
2018-03-31T05:07:05.387Z,72
2018-03-31T05:07:45.891Z,72
2018-03-31T05:08:26.377Z,80
2018-03-31T05:09:06.930Z,88
2018-03-31T05:09:47.391Z,92
2018-03-31T05:10:27.946Z,96
2018-03-31T05:11:08.421Z,104
2018-03-31T05:11:48.912Z,112
2018-03-31T05:12:29.380Z,116
2018-03-31T05:13:09.864Z,124
2018-03-31T05:13:50.444Z,128
2018-03-31T05:14:30.847Z,136
2018-03-31T05:15:11.350Z,144
2018-03-31T05:15:51.874Z,148
2018-03-31T05:16:32.374Z,156
2018-03-31T05:17:12.855Z,164
2018-03-31T05:17:53.386Z,172
2018-03-31T05:18:33.895Z,180
2018-03-31T05:19:14.291Z,188
2018-03-31T05:19:54.828Z,196
2018-03-31T05:20:35.266Z,208
2018-03-31T05:21:15.756Z,220
2018-03-31T05:21:56.384Z,228
2018-03-31T05:22:36.819Z,240
2018-03-31T05:23:17.339Z,252
2018-03-31T05:23:57.824Z,264
2018-03-31T05:24:38.384Z,276
2018-03-31T05:25:18.955Z,292
2018-03-31T05:25:59.380Z,308
2018-03-31T05:26:39.915Z,324
2018-03-31T05:27:20.406Z,340
2018-03-31T05:28:00.898Z,356
2018-03-31T05:28:41.418Z,376
2018-03-31T05:29:21.896Z,396
2018-03-31T05:30:02.414Z,412
2018-03-31T05:30:42.932Z,432
2018-03-31T05:31:23.432Z,452
2018-03-31T05:32:03.938Z,476
2018-03-31T05:32:44.507Z,492
2018-03-31T05:33:24.982Z,516
2018-03-31T05:34:05.368Z,540
2018-03-31T05:34:45.856Z,568
2018-03-31T05:35:26.352Z,592
2018-03-31T05:36:06.846Z,620
2018-03-31T05:36:47.336Z,652
2018-03-31T05:37:27.861Z,680
2018-03-31T05:38:08.339Z,708
2018-03-31T05:38:48.862Z,740
2018-03-31T05:39:29.359Z,768
2018-03-31T05:40:09.888Z,800
2018-03-31T05:40:50.343Z,832
2018-03-31T05:41:30.853Z,864
2018-03-31T05:42:11.348Z,900
2018-03-31T05:42:51.865Z,928
2018-03-31T05:43:32.360Z,960
2018-03-31T05:44:14.810Z,996
2018-03-31T05:44:55.282Z,1020
2018-03-31T05:45:35.777Z,1052
2018-03-31T05:46:16.297Z,1076
2018-03-31T05:46:56.780Z,1100
2018-03-31T05:47:37.283Z,1120
2018-03-31T05:48:17.792Z,1140
2018-03-31T05:48:58.297Z,1160
2018-03-31T05:49:38.859Z,1180
2018-03-31T05:50:19.346Z,1196
2018-03-31T05:51:01.487Z,1212
2018-03-31T05:51:41.980Z,1236
2018-03-31T05:52:22.461Z,1256
2018-03-31T05:53:02.958Z,1268
2018-03-31T05:53:43.456Z,1288
2018-03-31T05:54:23.971Z,1304
2018-03-31T05:55:04.472Z,1324
2018-03-31T05:55:44.915Z,1340
2018-03-31T05:56:25.410Z,1356
2018-03-31T05:57:05.933Z,1376
2018-03-31T05:57:46.464Z,1392
2018-03-31T05:58:27.001Z,1412
2018-03-31T05:59:07.474Z,1428
2018-03-31T05:59:47.915Z,1448
2018-03-31T06:00:28.393Z,1468
2018-03-31T06:01:08.943Z,1492
2018-03-31T06:01:49.386Z,1512
2018-03-31T06:02:29.875Z,1536
2018-03-31T06:03:10.386Z,1564
2018-03-31T06:03:50.824Z,1588
2018-03-31T06:04:31.321Z,1616
2018-03-31T06:05:11.813Z,1644
2018-03-31T06:05:52.317Z,1676
2018-03-31T06:06:32.816Z,1704
2018-03-31T06:07:13.405Z,1732
2018-03-31T06:07:53.877Z,1760
2018-03-31T06:08:34.389Z,1784
2018-03-31T06:09:14.853Z,1812
2018-03-31T06:09:55.429Z,1848
2018-03-31T06:10:35.997Z,1880
2018-03-31T06:11:16.460Z,1916
2018-03-31T06:11:56.898Z,1948
2018-03-31T06:12:37.369Z,1980
2018-03-31T06:13:17.855Z,2012
2018-03-31T06:13:58.350Z,2044
2018-03-31T06:14:38.832Z,2072
2018-03-31T06:15:19.274Z,2104
2018-03-31T06:15:59.814Z,2136
2018-03-31T06:16:40.315Z,2172
2018-03-31T06:17:20.779Z,2208
2018-03-31T06:18:01.276Z,2248
2018-03-31T06:18:41.825Z,2280
2018-03-31T06:19:22.308Z,2308
2018-03-31T06:20:02.797Z,2340
2018-03-31T06:20:43.272Z,2376
2018-03-31T06:21:23.757Z,2408
2018-03-31T06:22:04.254Z,2444
2018-03-31T06:22:44.763Z,2476
2018-03-31T06:23:25.249Z,2508
2018-03-31T06:24:05.720Z,2520
2018-03-31T06:24:46.181Z,2536
2018-03-31T06:25:26.682Z,2552
2018-03-31T06:26:07.204Z,2564
2018-03-31T06:26:47.838Z,2572
2018-03-31T06:27:28.324Z,2588
2018-03-31T06:28:08.815Z,2596
2018-03-31T06:28:49.317Z,2608
2018-03-31T06:29:29.841Z,2620
2018-03-31T06:30:10.402Z,2628
2018-03-31T06:30:50.916Z,2636
2018-03-31T06:31:31.383Z,2644
2018-03-31T06:32:11.870Z,2652
2018-03-31T06:32:52.438Z,2660
2018-03-31T06:33:32.852Z,2668
2018-03-31T06:34:13.368Z,2672
2018-03-31T06:34:53.849Z,2680
2018-03-31T06:35:34.325Z,2688
2018-03-31T06:36:14.841Z,2700
2018-03-31T06:36:55.335Z,2716
2018-03-31T06:37:35.842Z,2728
2018-03-31T06:38:16.359Z,2740
2018-03-31T06:38:56.839Z,2764
2018-03-31T06:39:37.396Z,2792
2018-03-31T06:40:17.825Z,2832
2018-03-31T06:40:58.330Z,2860
2018-03-31T06:41:38.847Z,2896
2018-03-31T06:42:19.293Z,2928
2018-03-31T06:42:59.796Z,2960
2018-03-31T06:43:40.321Z,2992
2018-03-31T06:44:20.848Z,3024
2018-03-31T06:45:01.332Z,3044
2018-03-31T06:45:41.846Z,3060
2018-03-31T06:46:22.321Z,3068
2018-03-31T06:47:02.868Z,3084
2018-03-31T06:47:43.399Z,3100
2018-03-31T06:48:23.931Z,3132
2018-03-31T06:49:04.435Z,3172
2018-03-31T06:49:44.851Z,3228
2018-03-31T06:50:25.357Z,3284
2018-03-31T06:51:05.846Z,3344
2018-03-31T06:51:46.321Z,3388
2018-03-31T06:52:26.859Z,3416
2018-03-31T06:53:07.339Z,3440
2018-03-31T06:53:47.847Z,3468
2018-03-31T06:54:28.323Z,3504
2018-03-31T06:55:08.835Z,3528
2018-03-31T06:55:49.304Z,3556
2018-03-31T06:56:29.823Z,3576
2018-03-31T06:57:10.276Z,3584
2018-03-31T06:57:50.750Z,3572
2018-03-31T06:58:31.249Z,3544
2018-03-31T06:59:11.774Z,3540
2018-03-31T06:59:52.185Z,3548
2018-03-31T07:00:32.845Z,3588
2018-03-31T07:01:13.299Z,3668
2018-03-31T07:01:53.811Z,3768
2018-03-31T07:02:34.295Z,3868
2018-03-31T07:03:14.774Z,3944
2018-03-31T07:03:55.254Z,3988
2018-03-31T07:04:35.781Z,4076
2018-03-31T07:05:16.359Z,4120
2018-03-31T07:05:56.998Z,4200
2018-03-31T07:06:37.367Z,4320
2018-03-31T07:07:17.853Z,4492
2018-03-31T07:07:58.393Z,4684
2018-03-31T07:08:38.968Z,4912
2018-03-31T07:09:19.399Z,5096
2018-03-31T07:09:59.897Z,5276
2018-03-31T07:10:40.434Z,5520
2018-03-31T07:11:20.908Z,5432
2018-03-31T07:12:01.466Z,5440
2018-03-31T07:12:41.922Z,5388
2018-03-31T07:13:22.406Z,5500
2018-03-31T07:14:02.938Z,5776
2018-03-31T07:14:43.413Z,5884
2018-03-31T07:15:23.928Z,5936
2018-03-31T07:16:04.352Z,5928
2018-03-31T07:16:44.846Z,5856
2018-03-31T07:17:25.312Z,5944
2018-03-31T07:18:05.865Z,5992
2018-03-31T07:18:46.379Z,6100
2018-03-31T07:19:26.918Z,6136
2018-03-31T07:20:07.367Z,6164
2018-03-31T07:20:47.845Z,6152
2018-03-31T07:21:28.378Z,6256
2018-03-31T07:22:08.859Z,6348
2018-03-31T07:22:49.308Z,6416
2018-03-31T07:23:29.892Z,6512
2018-03-31T07:24:10.362Z,6464
2018-03-31T07:24:50.829Z,6452
2018-03-31T07:25:31.311Z,6368
2018-03-31T07:26:11.848Z,6320
2018-03-31T07:26:52.333Z,6216
2018-03-31T07:27:32.786Z,6280
2018-03-31T07:28:13.280Z,6308
2018-03-31T07:28:53.799Z,6340
2018-03-31T07:29:34.246Z,6336
2018-03-31T07:30:14.772Z,6340
2018-03-31T07:30:55.232Z,6328
2018-03-31T07:31:36.015Z,6268
2018-03-31T07:32:16.498Z,6224
2018-03-31T07:32:57.016Z,6168
2018-03-31T07:33:37.507Z,6084
2018-03-31T07:34:17.958Z,5968
2018-03-31T07:34:58.780Z,5864
2018-03-31T07:35:39.313Z,5748
2018-03-31T07:36:19.757Z,5656
2018-03-31T07:37:00.258Z,5536
2018-03-31T07:37:40.761Z,5428
2018-03-31T07:38:21.222Z,5328
2018-03-31T07:39:01.760Z,5284
2018-03-31T07:39:42.285Z,5228
2018-03-31T07:40:22.885Z,5176
2018-03-31T07:41:03.379Z,5084
2018-03-31T07:41:43.891Z,5040
2018-03-31T07:42:24.398Z,4992
2018-03-31T07:43:04.892Z,4980
2018-03-31T07:43:45.418Z,4868
2018-03-31T07:44:25.912Z,4720
2018-03-31T07:45:06.401Z,4692
2018-03-31T07:45:46.900Z,4608
2018-03-31T07:46:27.400Z,4472
2018-03-31T07:47:07.893Z,4396
2018-03-31T07:47:48.414Z,4344
2018-03-31T07:48:28.938Z,4308
2018-03-31T07:49:09.425Z,4260
2018-03-31T07:49:50.003Z,4228
2018-03-31T07:50:30.488Z,4248
2018-03-31T07:51:10.996Z,4192
2018-03-31T07:51:51.521Z,4192
2018-03-31T07:52:32.022Z,4220
2018-03-31T07:53:12.492Z,4220
2018-03-31T07:53:53.010Z,4248
2018-03-31T07:54:33.793Z,4392
2018-03-31T07:55:14.278Z,4480
2018-03-31T07:55:54.776Z,4524
2018-03-31T07:56:35.269Z,4540
2018-03-31T07:57:15.805Z,4572
2018-03-31T07:57:56.362Z,4560
2018-03-31T07:58:37.062Z,4572
2018-03-31T07:59:17.683Z,4548
2018-03-31T07:59:58.397Z,4508
2018-03-31T08:00:38.833Z,4440
2018-03-31T08:01:19.466Z,4368
2018-03-31T08:01:59.974Z,4284
2018-03-31T08:02:40.442Z,4232
2018-03-31T08:03:21.194Z,4164
2018-03-31T08:04:01.578Z,4124
2018-03-31T08:04:41.987Z,4100
2018-03-31T08:05:22.523Z,4080
2018-03-31T08:06:02.933Z,4032
2018-03-31T08:06:43.484Z,3912
2018-03-31T08:07:24.226Z,3792
2018-03-31T08:08:04.650Z,3696
2018-03-31T08:08:45.167Z,3804
2018-03-31T08:09:25.684Z,3848
2018-03-31T08:10:06.182Z,3968
2018-03-31T08:10:46.704Z,3988
2018-03-31T08:11:27.134Z,4004
2018-03-31T08:12:07.660Z,4080
2018-03-31T08:12:48.174Z,4212
2018-03-31T08:13:28.699Z,4296
2018-03-31T08:14:09.215Z,4408
2018-03-31T08:14:49.685Z,4396
2018-03-31T08:15:30.292Z,4364
2018-03-31T08:16:11.766Z,4336
2018-03-31T08:16:53.270Z,4272
2018-03-31T08:17:33.701Z,4224
2018-03-31T08:18:14.203Z,4260
2018-03-31T08:18:54.839Z,4280
2018-03-31T08:19:35.291Z,4280
2018-03-31T08:20:15.808Z,4348
2018-03-31T08:20:56.334Z,4420
2018-03-31T08:21:36.886Z,4432
2018-03-31T08:22:17.530Z,4484
2018-03-31T08:22:57.960Z,4504
2018-03-31T08:23:38.500Z,4588
2018-03-31T08:24:18.999Z,4644
2018-03-31T08:24:59.779Z,4524
2018-03-31T08:25:40.358Z,4500
2018-03-31T08:26:21.313Z,4116
2018-03-31T08:27:01.645Z,4132
2018-03-31T08:27:42.154Z,4328
2018-03-31T08:28:22.610Z,4428
2018-03-31T08:29:03.196Z,4564
2018-03-31T08:29:43.959Z,4580
2018-03-31T08:30:25.046Z,4540
2018-03-31T08:31:05.481Z,4428
2018-03-31T08:31:46.043Z,4228
2018-03-31T08:32:26.689Z,4200
2018-03-31T08:33:07.285Z,4148
2018-03-31T08:33:47.953Z,4112
2018-03-31T08:34:28.573Z,4260
2018-03-31T08:35:09.118Z,4216
2018-03-31T08:35:49.521Z,4636
2018-03-31T08:36:30.704Z,4600
2018-03-31T08:37:10.897Z,4576
2018-03-31T08:37:51.454Z,4532
2018-03-31T08:38:31.972Z,4580
2018-03-31T08:39:12.559Z,4552
2018-03-31T08:39:53.111Z,4528
2018-03-31T08:40:33.515Z,4516
2018-03-31T08:41:13.972Z,4292
2018-03-31T08:41:54.515Z,4432
2018-03-31T08:42:35.094Z,4672
2018-03-31T08:43:15.525Z,4548
2018-03-31T08:43:56.058Z,4440
2018-03-31T08:44:36.700Z,4444
2018-03-31T08:45:17.270Z,4532
2018-03-31T08:45:58.126Z,4576
2018-03-31T08:46:38.704Z,4516
2018-03-31T08:47:19.084Z,4424
2018-03-31T08:47:59.782Z,4388
2018-03-31T08:48:40.122Z,4332
2018-03-31T08:49:20.619Z,4288
2018-03-31T08:50:01.234Z,4208
2018-03-31T08:50:41.707Z,4112
2018-03-31T08:51:22.993Z,3976
2018-03-31T08:52:03.508Z,3904
2018-03-31T08:52:44.011Z,3828
2018-03-31T08:53:24.464Z,3856
2018-03-31T08:54:05.035Z,3884
2018-03-31T08:54:45.463Z,3784
2018-03-31T08:55:25.984Z,3620
2018-03-31T08:56:06.485Z,3532
2018-03-31T08:56:47.040Z,3512
2018-03-31T08:57:27.529Z,3516
2018-03-31T08:58:08.004Z,3544
2018-03-31T08:58:48.561Z,3564
2018-03-31T08:59:29.003Z,3596
2018-03-31T09:00:09.623Z,3652
2018-03-31T09:00:50.277Z,3748
2018-03-31T09:01:30.743Z,4000
2018-03-31T09:02:11.507Z,4060
2018-03-31T09:02:51.920Z,4180
2018-03-31T09:03:32.465Z,4260
2018-03-31T09:04:13.013Z,4352
2018-03-31T09:04:53.616Z,4396
2018-03-31T09:05:34.066Z,4420
2018-03-31T09:06:14.562Z,4448
2018-03-31T09:06:55.047Z,4488
2018-03-31T09:07:35.702Z,4604
2018-03-31T09:08:16.251Z,4692
2018-03-31T09:08:56.832Z,4776
2018-03-31T09:09:37.311Z,4876
2018-03-31T09:10:17.959Z,4984
2018-03-31T09:10:58.964Z,5092
2018-03-31T09:11:39.269Z,5204
2018-03-31T09:12:19.923Z,5284
2018-03-31T09:13:00.430Z,5292
2018-03-31T09:13:40.911Z,5252
2018-03-31T09:14:21.452Z,5224
2018-03-31T09:15:02.017Z,5196
2018-03-31T09:15:42.461Z,5176
2018-03-31T09:16:22.991Z,5196
2018-03-31T09:17:03.613Z,5272
2018-03-31T09:17:44.311Z,5260
2018-03-31T09:18:24.866Z,5328
2018-03-31T09:19:05.270Z,5388
2018-03-31T09:19:45.770Z,5436
2018-03-31T09:20:26.403Z,5396
2018-03-31T09:21:06.916Z,5300
2018-03-31T09:21:47.632Z,5260
2018-03-31T09:22:28.226Z,5216
2018-03-31T09:23:08.842Z,5428
2018-03-31T09:23:49.220Z,5648
2018-03-31T09:24:29.730Z,5852
2018-03-31T09:25:10.325Z,5984
2018-03-31T09:25:50.692Z,6132
2018-03-31T09:26:31.247Z,6152
2018-03-31T09:27:11.654Z,6280
2018-03-31T09:27:52.399Z,6352
2018-03-31T09:28:33.015Z,6392
2018-03-31T09:29:13.485Z,6436
2018-03-31T09:29:54.018Z,6528
2018-03-31T09:30:34.723Z,6616
2018-03-31T09:31:15.340Z,6620
2018-03-31T09:31:55.827Z,6580
2018-03-31T09:32:36.397Z,6300
2018-03-31T09:33:16.940Z,6280